Time;durP1;ratioP1;P1;durP2;ratioP2;P2;SDS_P1;SDS_P2;PMS_P1;PMS_P2;Temp;Humidity;BMP_temperature;BMP_pressure;BME280_temperature;BME280_humidity;BME280_pressure;Samples;Min_cycle;Max_cycle;Signal;HPM_P1;HPM_P2
2022/03/09 00:01:47;;;;;;;14.27;9.83;;;0.30;99.90;;;;;;5013358;28;20208;-52
2022/03/09 00:04:15;;;;;;;12.63;8.37;;;0.30;99.90;;;;;;5013078;28;20227;-52
2022/03/09 00:06:43;;;;;;;11.10;7.40;;;0.30;99.90;;;;;;5013337;28;20747;-52
2022/03/09 00:09:13;;;;;;;19.20;11.60;;;0.20;99.90;;;;;;5013203;28;20568;-52
2022/03/09 00:11:42;;;;;;;39.00;25.30;;;0.20;99.90;;;;;;5012898;28;20227;-52
2022/03/09 00:14:10;;;;;;;24.40;14.40;;;0.20;99.90;;;;;;5012878;28;20278;-52
2022/03/09 00:16:39;;;;;;;61.70;39.97;;;0.10;99.90;;;;;;5013074;28;20563;-52
2022/03/09 00:19:09;;;;;;;30.53;22.23;;;0.10;99.90;;;;;;5013166;28;20201;-52
2022/03/09 00:21:38;;;;;;;18.03;10.87;;;0.10;99.90;;;;;;5012958;28;20211;-51
2022/03/09 00:24:07;;;;;;;14.10;9.50;;;0.10;99.90;;;;;;5012635;28;20270;-52
2022/03/09 00:26:35;;;;;;;12.67;9.40;;;0.10;99.90;;;;;;5013218;28;20209;-51
2022/03/09 00:29:04;;;;;;;15.47;12.83;;;0.00;99.90;;;;;;5012570;28;20692;-52
2022/03/09 00:31:32;;;;;;;17.37;12.40;;;0.00;99.90;;;;;;5012832;28;20628;-51
2022/03/09 00:34:02;;;;;;;12.90;9.00;;;0.00;99.90;;;;;;5011992;28;20581;-53
2022/03/09 00:36:32;;;;;;;12.40;8.60;;;0.00;99.90;;;;;;5012598;28;20601;-51
2022/03/09 00:39:00;;;;;;;17.13;13.47;;;-0.10;99.90;;;;;;5012699;28;20212;-51
2022/03/09 00:41:28;;;;;;;19.67;15.27;;;-0.10;99.90;;;;;;5012676;28;20211;-51
2022/03/09 00:43:57;;;;;;;11.93;8.00;;;-0.10;99.90;;;;;;5011891;28;20275;-51
2022/03/09 00:46:25;;;;;;;10.77;8.13;;;-0.10;99.90;;;;;;5011649;28;20257;-52
2022/03/09 00:48:53;;;;;;;11.30;7.87;;;-0.10;99.90;;;;;;5012300;28;20208;-51
2022/03/09 00:51:23;;;;;;;14.27;8.77;;;-0.20;99.90;;;;;;5012131;28;20213;-51
2022/03/09 00:53:51;;;;;;;12.23;8.67;;;-0.20;99.90;;;;;;5011182;28;20222;-51
2022/03/09 00:56:20;;;;;;;10.03;7.60;;;-0.20;99.90;;;;;;5012256;28;20217;-50
2022/03/09 00:58:48;;;;;;;11.80;8.00;;;-0.20;99.90;;;;;;4993628;28;20259;-52
2022/03/09 01:01:16;;;;;;;13.73;9.17;;;-0.20;99.90;;;;;;4991686;28;20276;-51
2022/03/09 01:03:45;;;;;;;12.97;8.57;;;-0.20;99.90;;;;;;4991150;28;20707;-51
2022/03/09 01:06:13;;;;;;;13.63;9.00;;;-0.20;99.90;;;;;;4991641;28;20255;-52
2022/03/09 01:08:43;;;;;;;11.80;8.53;;;-0.20;99.90;;;;;;5002071;28;20552;-52
2022/03/09 01:11:11;;;;;;;12.60;8.73;;;-0.20;99.90;;;;;;5012161;28;20792;-52
2022/03/09 01:13:43;;;;;;;10.43;7.70;;;-0.30;99.90;;;;;;5011402;28;20214;-51
2022/03/09 01:16:11;;;;;;;11.30;7.80;;;-0.30;99.90;;;;;;5012008;28;20234;-52
2022/03/09 01:18:39;;;;;;;10.57;8.13;;;-0.30;99.90;;;;;;5011505;28;20699;-51
2022/03/09 01:21:08;;;;;;;11.33;7.90;;;-0.40;99.90;;;;;;5012231;28;20204;-52
2022/03/09 01:23:36;;;;;;;11.73;7.20;;;-0.40;99.90;;;;;;5011322;28;20208;-52
2022/03/09 01:26:05;;;;;;;13.07;8.93;;;-0.40;99.90;;;;;;5012200;28;20282;-52
2022/03/09 01:28:34;;;;;;;11.90;7.80;;;-0.40;99.90;;;;;;5010956;28;20211;-51
2022/03/09 01:31:02;;;;;;;11.20;7.80;;;-0.40;99.90;;;;;;5011985;28;20234;-52
2022/03/09 01:33:30;;;;;;;11.93;7.83;;;-0.40;99.90;;;;;;5010866;28;20210;-51
2022/03/09 01:35:58;;;;;;;11.83;8.20;;;-0.40;99.90;;;;;;5011540;28;20228;-52
2022/03/09 01:38:28;;;;;;;11.60;7.73;;;-0.50;99.90;;;;;;5011560;28;20208;-52
2022/03/09 01:40:56;;;;;;;11.20;7.37;;;-0.50;99.90;;;;;;5011471;28;20264;-51
2022/03/09 01:43:25;;;;;;;10.60;7.60;;;-0.50;99.90;;;;;;5011064;28;20207;-52
2022/03/09 01:45:53;;;;;;;11.50;7.37;;;-0.60;99.90;;;;;;5011398;28;20261;-52
2022/03/09 01:48:21;;;;;;;12.30;7.17;;;-0.60;99.90;;;;;;5011561;28;20208;-51
2022/03/09 01:50:49;;;;;;;10.27;7.37;;;-0.60;99.90;;;;;;5011330;28;20719;-52
2022/03/09 01:53:18;;;;;;;9.10;7.27;;;-0.60;99.90;;;;;;5011610;28;20680;-51
2022/03/09 01:55:47;;;;;;;13.77;7.90;;;-0.70;99.90;;;;;;5012076;28;20230;-51
2022/03/09 01:58:15;;;;;;;10.97;7.23;;;-0.60;99.90;;;;;;5011585;28;20218;-51
2022/03/09 02:00:44;;;;;;;12.60;7.20;;;-0.70;99.90;;;;;;5012141;28;20207;-52
2022/03/09 02:03:12;;;;;;;10.07;7.40;;;-0.70;99.90;;;;;;5010984;28;20675;-52
2022/03/09 02:05:41;;;;;;;11.83;6.90;;;-0.70;99.90;;;;;;5011929;28;20230;-51
2022/03/09 02:10:55;;;;;;;11.07;7.43;;;-0.80;99.90;;;;;;5011566;28;20242;-52
2022/03/09 02:13:23;;;;;;;12.53;7.10;;;-0.80;99.90;;;;;;5010703;28;20206;-52
2022/03/09 02:15:52;;;;;;;11.43;7.53;;;-0.80;99.90;;;;;;5011413;28;20234;-51
2022/03/09 02:18:20;;;;;;;10.67;7.13;;;-0.80;99.90;;;;;;5011172;28;20207;-52
2022/03/09 02:20:50;;;;;;;10.10;6.80;;;-0.80;99.90;;;;;;5011013;28;20203;-52
2022/03/09 02:23:20;;;;;;;10.10;7.30;;;-0.80;99.90;;;;;;5011019;28;20215;-52
2022/03/09 02:25:48;;;;;;;11.67;7.87;;;-0.80;99.90;;;;;;5010430;28;20235;-51
2022/03/09 02:28:16;;;;;;;11.00;7.40;;;-0.90;99.90;;;;;;5011077;28;20257;-51
2022/03/09 02:30:44;;;;;;;10.47;6.97;;;-0.80;99.90;;;;;;5010735;28;20277;-51
2022/03/09 02:33:12;;;;;;;11.50;7.30;;;-0.90;99.90;;;;;;5009445;28;20230;-52
2022/03/09 02:35:42;;;;;;;13.37;7.50;;;-0.90;99.90;;;;;;5011054;28;20226;-51
2022/03/09 02:38:10;;;;;;;11.77;7.60;;;-0.90;99.90;;;;;;5011316;28;20210;-52
2022/03/09 02:40:40;;;;;;;9.53;6.73;;;-0.90;99.90;;;;;;5011074;28;20743;-52
2022/03/09 02:43:08;;;;;;;12.33;7.40;;;-0.90;99.90;;;;;;5010218;28;20215;-51
2022/03/09 02:45:36;;;;;;;9.73;6.93;;;-0.90;99.90;;;;;;5010942;28;20779;-51
2022/03/09 02:48:05;;;;;;;12.73;7.17;;;-0.90;99.90;;;;;;5010521;28;20638;-51
2022/03/09 02:50:33;;;;;;;10.20;7.07;;;-1.00;99.90;;;;;;5011167;28;20227;-51
2022/03/09 02:53:01;;;;;;;10.47;7.13;;;-1.00;99.90;;;;;;5010495;28;20262;-52
2022/03/09 02:55:29;;;;;;;12.87;7.50;;;-1.00;99.90;;;;;;5010774;28;20262;-51
2022/03/09 02:57:59;;;;;;;9.23;6.63;;;-1.00;99.90;;;;;;5011615;28;20626;-51
2022/03/09 03:00:28;;;;;;;12.00;7.27;;;-1.00;99.90;;;;;;5010677;28;20198;-50
2022/03/09 03:02:56;;;;;;;12.03;7.50;;;-1.00;99.90;;;;;;5010673;28;20207;-51
2022/03/09 03:05:24;;;;;;;10.90;6.93;;;-1.00;99.90;;;;;;5010851;28;20672;-51
2022/03/09 03:07:53;;;;;;;9.03;6.60;;;-1.10;99.90;;;;;;5011200;28;20243;-51
2022/03/09 03:10:22;;;;;;;13.53;6.87;;;-1.10;99.90;;;;;;5010576;28;20257;-51
2022/03/09 03:12:50;;;;;;;10.47;7.30;;;-1.10;99.90;;;;;;5010144;28;20211;-50
2022/03/09 03:15:19;;;;;;;10.00;6.70;;;-1.10;99.90;;;;;;5010589;28;20743;-51
2022/03/09 03:17:47;;;;;;;18.83;8.07;;;-1.20;99.90;;;;;;5013607;28;20668;-51
2022/03/09 03:20:15;;;;;;;12.47;7.30;;;-1.10;99.90;;;;;;5014594;28;20203;-51
2022/03/09 03:22:43;;;;;;;11.67;7.23;;;-1.20;99.90;;;;;;5013887;28;20207;-51
2022/03/09 03:25:12;;;;;;;12.57;6.80;;;-1.20;99.90;;;;;;5014476;28;20273;-51
2022/03/09 03:27:45;;;;;;;12.03;8.00;;;-1.30;99.90;;;;;;5014140;28;20286;-51
2022/03/09 03:30:13;;;;;;;9.50;6.80;;;-1.30;99.90;;;;;;5014363;28;20617;-51
2022/03/09 03:32:42;;;;;;;11.90;6.93;;;-1.30;99.90;;;;;;5013523;28;20207;-50
2022/03/09 03:35:11;;;;;;;10.00;7.03;;;-1.40;99.90;;;;;;5014098;28;20708;-51
2022/03/09 03:37:40;;;;;;;11.90;6.63;;;-1.30;99.90;;;;;;5013752;28;20238;-51
2022/03/09 03:40:10;;;;;;;12.43;6.83;;;-1.30;99.90;;;;;;5014117;28;20203;-51
2022/03/09 03:42:38;;;;;;;11.07;6.63;;;-1.40;99.90;;;;;;5013561;28;20629;-51
2022/03/09 03:45:08;;;;;;;11.67;7.20;;;-1.40;99.90;;;;;;5012048;28;20227;-51
2022/03/09 03:47:36;;;;;;;9.50;7.00;;;-1.40;99.90;;;;;;5013721;28;20202;-51
2022/03/09 03:50:06;;;;;;;11.07;6.93;;;-1.40;99.90;;;;;;5013678;28;20676;-51
2022/03/09 03:52:34;;;;;;;11.00;6.83;;;-1.40;99.90;;;;;;5013271;28;20234;-50
2022/03/09 03:55:03;;;;;;;11.37;7.00;;;-1.40;99.90;;;;;;5013083;28;20235;-50
2022/03/09 03:57:31;;;;;;;11.03;7.03;;;-1.40;99.90;;;;;;5013411;28;20219;-51
2022/03/09 03:59:59;;;;;;;10.67;7.23;;;-1.40;99.90;;;;;;5013279;28;20676;-51
2022/03/09 04:02:27;;;;;;;11.50;7.20;;;-1.40;99.90;;;;;;5013165;28;20207;-51
2022/03/09 04:04:55;;;;;;;7.57;6.43;;;-1.40;99.90;;;;;;5013252;28;20285;-51
2022/03/09 04:07:25;;;;;;;10.77;7.13;;;-1.40;99.90;;;;;;5013017;28;20215;-51
2022/03/09 04:09:53;;;;;;;10.57;6.83;;;-1.40;99.90;;;;;;5013546;28;20269;-51
2022/03/09 04:12:23;;;;;;;9.37;6.73;;;-1.50;99.90;;;;;;5012566;28;20254;-51
2022/03/09 04:14:52;;;;;;;11.07;6.57;;;-1.50;99.90;;;;;;5013209;28;20257;-51
2022/03/09 04:17:20;;;;;;;11.03;7.10;;;-1.40;99.90;;;;;;5013290;28;20207;-51
2022/03/09 04:19:48;;;;;;;11.03;6.60;;;-1.40;99.90;;;;;;5013038;28;20273;-51
2022/03/09 04:22:16;;;;;;;9.67;6.63;;;-1.40;99.90;;;;;;5012310;28;20266;-52
2022/03/09 04:24:46;;;;;;;10.90;6.63;;;-1.40;99.90;;;;;;5013037;28;20250;-51
2022/03/09 04:27:14;;;;;;;11.33;6.53;;;-1.40;99.90;;;;;;5012915;28;20638;-51
2022/03/09 04:29:42;;;;;;;13.10;6.43;;;-1.30;99.90;;;;;;5012232;28;20259;-49
2022/03/09 04:32:10;;;;;;;10.13;6.73;;;-1.30;99.90;;;;;;5012703;28;20600;-51
2022/03/09 04:34:38;;;;;;;13.57;7.03;;;-1.30;99.90;;;;;;5011946;28;20226;-51
2022/03/09 04:37:09;;;;;;;12.80;6.53;;;-1.30;99.90;;;;;;5013208;28;20205;-50
2022/03/09 04:39:37;;;;;;;10.93;6.60;;;-1.30;99.90;;;;;;5012684;28;20203;-51
2022/03/09 04:42:06;;;;;;;10.23;6.70;;;-1.30;99.90;;;;;;5012524;28;20684;-51
2022/03/09 04:44:35;;;;;;;14.57;7.63;;;-1.40;99.90;;;;;;5011126;28;20226;-52
2022/03/09 04:47:03;;;;;;;13.50;8.17;;;-1.40;99.90;;;;;;5012660;28;20242;-51
2022/03/09 04:49:31;;;;;;;12.23;7.20;;;-1.40;99.90;;;;;;5012649;28;20301;-51
2022/03/09 04:52:00;;;;;;;9.90;6.00;;;-1.50;99.90;;;;;;5012086;28;20304;-52
2022/03/09 04:54:28;;;;;;;11.50;6.83;;;-1.50;99.90;;;;;;5012390;28;20301;-51
2022/03/09 04:56:56;;;;;;;9.90;6.70;;;-1.50;99.90;;;;;;5011549;28;20207;-51
2022/03/09 04:59:25;;;;;;;11.20;6.73;;;-1.40;99.90;;;;;;5012469;28;20215;-51
2022/03/09 05:01:54;;;;;;;11.13;6.80;;;-1.40;99.90;;;;;;5012085;28;20211;-51
2022/03/09 05:04:22;;;;;;;11.27;7.67;;;-1.40;99.90;;;;;;5011814;28;20273;-51
2022/03/09 05:06:50;;;;;;;10.00;6.67;;;-1.50;99.90;;;;;;5012633;28;20222;-52
2022/03/09 05:09:18;;;;;;;12.13;6.87;;;-1.50;99.90;;;;;;5011894;28;20203;-51
2022/03/09 05:11:46;;;;;;;11.37;6.93;;;-1.50;99.90;;;;;;5011663;28;20227;-51
2022/03/09 05:14:14;;;;;;;10.83;7.27;;;-1.60;99.90;;;;;;5011815;28;20724;-52
2022/03/09 05:16:44;;;;;;;9.70;6.33;;;-1.60;99.90;;;;;;5012565;28;20238;-51
2022/03/09 05:19:12;;;;;;;9.93;6.97;;;-1.60;99.90;;;;;;5011656;28;20207;-51
2022/03/09 05:21:40;;;;;;;14.23;7.10;;;-1.60;99.90;;;;;;5012014;28;20739;-51
2022/03/09 05:24:28;;;;;;;9.60;6.53;;;-1.60;99.90;;;;;;5011814;28;20230;-51
2022/03/09 05:26:56;;;;;;;10.90;7.07;;;-1.60;99.90;;;;;;5011992;28;20253;-52
2022/03/09 05:29:24;;;;;;;10.30;6.97;;;-1.60;99.90;;;;;;5012111;28;20211;-51
2022/03/09 05:31:53;;;;;;;10.23;6.50;;;-1.60;99.90;;;;;;5011237;28;20734;-52
2022/03/09 05:34:21;;;;;;;12.00;6.83;;;-1.60;99.90;;;;;;5011656;28;20277;-52
2022/03/09 05:36:49;;;;;;;9.57;6.63;;;-1.50;99.90;;;;;;5011519;28;20900;-51
2022/03/09 05:39:17;;;;;;;11.20;5.97;;;-1.50;99.90;;;;;;5011494;28;20210;-52
2022/03/09 05:41:47;;;;;;;14.80;8.10;;;-1.50;99.90;;;;;;5010760;28;20233;-52
2022/03/09 05:44:15;;;;;;;11.33;6.87;;;-1.50;99.90;;;;;;5011310;28;20227;-52
2022/03/09 05:46:43;;;;;;;11.10;6.43;;;-1.40;99.90;;;;;;5011302;28;20712;-51
2022/03/09 05:49:13;;;;;;;11.60;7.03;;;-1.50;99.90;;;;;;5011191;28;20227;-51
2022/03/09 05:51:44;;;;;;;9.37;6.33;;;-1.50;99.90;;;;;;5011427;28;20626;-51
2022/03/09 05:54:12;;;;;;;11.00;6.70;;;-1.50;99.90;;;;;;5010906;28;20280;-52
2022/03/09 05:56:41;;;;;;;11.07;7.07;;;-1.50;99.90;;;;;;5011447;28;20207;-52
2022/03/09 05:59:09;;;;;;;11.90;7.40;;;-1.50;99.90;;;;;;5010881;28;20210;-51
2022/03/09 06:01:37;;;;;;;11.33;7.33;;;-1.50;99.90;;;;;;5011173;28;20246;-52
2022/03/09 06:04:06;;;;;;;11.93;7.07;;;-1.50;99.90;;;;;;5010589;28;20213;-52
2022/03/09 06:06:35;;;;;;;11.50;7.53;;;-1.50;99.90;;;;;;5011402;28;20251;-52
2022/03/09 06:09:03;;;;;;;14.63;7.63;;;-1.50;99.90;;;;;;5010993;28;20746;-52
2022/03/09 06:11:31;;;;;;;10.53;7.00;;;-1.60;99.90;;;;;;5011302;28;20668;-52
2022/03/09 06:14:00;;;;;;;11.83;7.30;;;-1.50;99.90;;;;;;5010710;28;20211;-52
2022/03/09 06:16:28;;;;;;;11.17;7.10;;;-1.60;99.90;;;;;;5010771;28;20210;-52
2022/03/09 06:18:56;;;;;;;11.40;7.80;;;-1.60;99.90;;;;;;5011056;28;20211;-52
2022/03/09 06:21:24;;;;;;;14.37;7.97;;;-1.50;99.90;;;;;;5011166;28;20230;-52
2022/03/09 06:23:54;;;;;;;14.43;8.60;;;-1.50;99.90;;;;;;5010551;28;20203;-52
2022/03/09 06:26:23;;;;;;;13.93;8.20;;;-1.50;99.90;;;;;;5010492;28;20202;-52
2022/03/09 06:28:51;;;;;;;14.13;9.00;;;-1.50;99.90;;;;;;5011111;28;20273;-52
2022/03/09 06:31:19;;;;;;;12.50;7.40;;;-1.50;99.90;;;;;;5011018;28;20247;-52
2022/03/09 06:33:47;;;;;;;11.63;7.57;;;-1.40;99.90;;;;;;5010337;28;20223;-52
2022/03/09 06:36:16;;;;;;;13.33;7.90;;;-1.40;99.90;;;;;;5011358;28;20210;-52
2022/03/09 06:38:44;;;;;;;23.83;11.97;;;-1.30;99.90;;;;;;4999093;28;20239;-52
2022/03/09 06:41:13;;;;;;;26.63;14.90;;;-1.10;99.90;;;;;;5003587;28;20253;-52
2022/03/09 06:43:42;;;;;;;18.83;10.50;;;-0.90;99.90;;;;;;5010180;28;20207;-52
2022/03/09 06:46:10;;;;;;;15.27;9.07;;;-0.60;99.90;;;;;;5010730;28;20769;-52
2022/03/09 06:48:39;;;;;;;13.83;9.37;;;-0.20;99.90;;;;;;5010132;28;20672;-52
2022/03/09 06:51:07;;;;;;;14.50;8.57;;;0.10;99.90;;;;;;5011112;28;20220;-52
2022/03/09 06:53:38;;;;;;;12.57;8.80;;;0.30;99.90;;;;;;5013386;28;20289;-51
2022/03/09 06:56:07;;;;;;;12.63;8.63;;;0.70;99.90;;;;;;5014367;28;20285;-52
2022/03/09 06:58:38;;;;;;;12.70;8.97;;;1.00;99.90;;;;;;5014623;28;20214;-52
2022/03/09 07:01:06;;;;;;;14.27;9.83;;;1.30;99.90;;;;;;5014331;28;20672;-52
2022/03/09 07:03:35;;;;;;;14.57;8.90;;;1.40;99.90;;;;;;5014102;28;20204;-52
2022/03/09 07:06:03;;;;;;;13.80;8.40;;;1.60;99.90;;;;;;5014600;28;20313;-52
2022/03/09 07:08:32;;;;;;;13.80;9.03;;;1.70;99.90;;;;;;5014122;28;20904;-52
2022/03/09 07:11:00;;;;;;;13.23;10.10;;;1.80;99.90;;;;;;5014185;28;20261;-52
2022/03/09 07:13:29;;;;;;;13.20;8.70;;;1.70;99.90;;;;;;5013885;28;20225;-52
2022/03/09 07:15:59;;;;;;;12.30;9.13;;;1.90;99.90;;;;;;5014657;28;20639;-52
2022/03/09 07:18:27;;;;;;;10.43;7.90;;;2.20;99.90;;;;;;5014162;28;20207;-52
2022/03/09 07:20:56;;;;;;;11.67;8.40;;;2.30;99.90;;;;;;5014032;28;20242;-52
2022/03/09 07:23:24;;;;;;;14.73;9.50;;;2.40;99.90;;;;;;5013780;28;20206;-52
2022/03/09 07:25:55;;;;;;;12.33;8.83;;;2.50;99.90;;;;;;5011532;28;20703;-52
2022/03/09 07:28:23;;;;;;;14.97;8.80;;;2.70;99.90;;;;;;4994327;28;20212;-52
2022/03/09 07:30:51;;;;;;;9.70;8.23;;;2.90;99.90;;;;;;4994589;28;20215;-52
2022/03/09 07:33:21;;;;;;;11.47;9.63;;;3.10;99.90;;;;;;4993258;28;20228;-52
2022/03/09 07:35:49;;;;;;;11.60;9.53;;;3.40;99.90;;;;;;4994622;28;20234;-52
2022/03/09 07:38:17;;;;;;;11.10;8.40;;;3.60;99.90;;;;;;4993465;28;20244;-52
2022/03/09 07:40:45;;;;;;;9.27;7.43;;;3.80;99.90;;;;;;5011509;28;20219;-52
2022/03/09 07:43:14;;;;;;;12.13;7.63;;;4.00;99.90;;;;;;5013601;28;20255;-52
2022/03/09 07:45:46;;;;;;;10.43;7.80;;;4.10;99.90;;;;;;5012058;28;20279;-52
2022/03/09 07:48:15;;;;;;;10.77;7.27;;;4.20;99.90;;;;;;5013339;28;20233;-52
2022/03/09 07:50:45;;;;;;;11.10;8.40;;;4.40;99.90;;;;;;5013607;28;20207;-52
2022/03/09 07:53:16;;;;;;;10.70;7.90;;;4.50;99.90;;;;;;5013243;28;20623;-52
2022/03/09 07:55:44;;;;;;;10.50;7.83;;;4.70;99.90;;;;;;5012088;28;20225;-53
2022/03/09 07:58:12;;;;;;;10.70;8.00;;;4.80;99.90;;;;;;5013654;28;20288;-52
2022/03/09 08:00:41;;;;;;;11.47;7.30;;;4.90;99.90;;;;;;5013685;28;20285;-52
2022/03/09 08:03:09;;;;;;;11.90;7.93;;;5.00;99.90;;;;;;5012056;28;20703;-52
2022/03/09 08:05:58;;;;;;;13.70;8.47;;;5.00;99.90;;;;;;5013746;28;20326;-52
2022/03/09 08:08:26;;;;;;;9.30;7.33;;;4.70;99.90;;;;;;5013263;28;20209;-52
2022/03/09 08:10:54;;;;;;;9.53;8.10;;;4.60;99.90;;;;;;5012912;28;20342;-52
2022/03/09 08:13:22;;;;;;;10.50;7.87;;;4.40;99.90;;;;;;5012643;28;20246;-52
2022/03/09 08:15:50;;;;;;;9.40;8.07;;;4.40;99.90;;;;;;5013419;28;20262;-52
2022/03/09 08:18:19;;;;;;;16.70;9.23;;;4.30;99.90;;;;;;5012547;28;20743;-52
2022/03/09 08:20:47;;;;;;;14.73;10.93;;;4.30;99.90;;;;;;5013513;28;20213;-52
2022/03/09 08:23:16;;;;;;;10.67;8.87;;;4.40;99.90;;;;;;5012843;28;20205;-52
2022/03/09 08:25:44;;;;;;;12.10;8.60;;;4.40;99.90;;;;;;5012980;28;20285;-52
2022/03/09 08:28:13;;;;;;;12.13;8.30;;;4.50;99.90;;;;;;5012426;28;20707;-52
2022/03/09 08:30:41;;;;;;;10.90;8.77;;;4.60;99.90;;;;;;5012065;28;20439;-52
2022/03/09 08:33:10;;;;;;;11.07;8.60;;;4.90;99.90;;;;;;5012629;28;20210;-52
2022/03/09 08:35:39;;;;;;;12.53;9.57;;;4.90;99.90;;;;;;5012638;28;20273;-52
2022/03/09 08:38:07;;;;;;;12.83;9.23;;;4.90;99.90;;;;;;5013648;28;20214;-52
2022/03/09 08:40:37;;;;;;;11.63;8.97;;;4.90;99.90;;;;;;5014261;28;20207;-51
2022/03/09 08:43:05;;;;;;;13.90;9.07;;;5.00;99.90;;;;;;5013645;28;20218;-51
2022/03/09 08:45:33;;;;;;;12.33;9.37;;;5.10;99.90;;;;;;5013273;28;20226;-52
2022/03/09 08:48:01;;;;;;;12.67;9.00;;;5.10;99.90;;;;;;5012578;28;20242;-52
2022/03/09 08:50:29;;;;;;;12.70;9.13;;;5.20;99.90;;;;;;5013418;28;20281;-51
2022/03/09 08:53:03;;;;;;;16.20;10.38;;;5.20;99.90;;;;;;5011755;28;20435;-51
2022/03/09 08:55:31;;;;;;;13.47;8.87;;;5.40;99.90;;;;;;5011693;28;20230;-52
2022/03/09 08:58:01;;;;;;;13.73;9.60;;;5.40;99.90;;;;;;5012544;28;20211;-52
2022/03/09 09:00:29;;;;;;;13.03;9.40;;;5.50;99.90;;;;;;5013286;28;20202;-52
2022/03/09 09:02:57;;;;;;;12.20;9.63;;;5.50;99.90;;;;;;5008845;28;20207;-52
2022/03/09 09:05:37;;;;;;;10.87;9.13;;;5.60;99.90;;;;;;4993009;28;20277;-52
2022/03/09 09:08:05;;;;;;;12.13;9.10;;;5.70;99.90;;;;;;4997347;28;20665;-52
2022/03/09 09:10:35;;;;;;;12.10;9.23;;;5.90;99.90;;;;;;5012091;28;20730;-52
2022/03/09 09:13:06;;;;;;;15.33;9.70;;;6.00;99.90;;;;;;5001574;28;20211;-52
2022/03/09 09:15:34;;;;;;;13.63;9.07;;;6.10;99.90;;;;;;5004513;28;20266;-52
2022/03/09 09:18:04;;;;;;;10.03;8.57;;;6.20;99.90;;;;;;5011809;28;20641;-52
2022/03/09 09:20:51;;;;;;;11.07;8.93;;;6.30;99.90;;;;;;5012119;28;20197;-52
2022/03/09 09:23:21;;;;;;;12.20;9.07;;;6.40;99.90;;;;;;5011633;28;20211;-52
2022/03/09 09:25:49;;;;;;;13.10;9.33;;;6.50;99.90;;;;;;5011309;28;20220;-52
2022/03/09 09:28:19;;;;;;;11.43;9.17;;;6.60;99.90;;;;;;5011616;28;20215;-52
2022/03/09 09:30:48;;;;;;;11.50;8.90;;;6.60;99.90;;;;;;5012412;28;20279;-52
2022/03/09 09:33:16;;;;;;;10.87;8.90;;;6.70;99.90;;;;;;5009979;28;20266;-52
2022/03/09 09:35:48;;;;;;;13.90;9.37;;;6.70;99.90;;;;;;5011974;28;20247;-52
2022/03/09 09:38:16;;;;;;;12.23;9.53;;;6.80;99.90;;;;;;5011880;28;20207;-52
2022/03/09 09:40:46;;;;;;;12.10;8.60;;;6.80;99.90;;;;;;5011864;28;20204;-52
2022/03/09 09:43:16;;;;;;;11.43;9.10;;;6.90;99.90;;;;;;5010482;28;20586;-52
2022/03/09 09:45:45;;;;;;;12.00;9.13;;;6.90;99.90;;;;;;5004304;28;20217;-52
2022/03/09 09:48:13;;;;;;;11.67;8.67;;;7.00;99.90;;;;;;5001621;28;20634;-52
2022/03/09 09:50:43;;;;;;;13.20;9.37;;;7.10;99.90;;;;;;5011527;28;20206;-52
2022/03/09 09:53:14;;;;;;;11.60;8.37;;;7.10;99.90;;;;;;5011004;28;20278;-52
2022/03/09 09:55:43;;;;;;;11.77;8.87;;;7.20;99.90;;;;;;5010626;28;20239;-52
2022/03/09 09:58:12;;;;;;;11.60;8.90;;;7.20;99.90;;;;;;5011240;28;20206;-52
2022/03/09 10:00:40;;;;;;;11.60;8.47;;;7.30;99.90;;;;;;5011271;28;20269;-53
2022/03/09 10:03:10;;;;;;;11.93;8.43;;;7.40;99.90;;;;;;5010474;28;20714;-52
2022/03/09 10:05:38;;;;;;;10.30;8.53;;;7.40;99.90;;;;;;5010669;28;20317;-51
2022/03/09 10:08:13;;;;;;;12.90;9.00;;;7.50;99.90;;;;;;5004729;28;20209;-52
2022/03/09 10:10:44;;;;;;;11.37;8.10;;;7.50;99.90;;;;;;5001080;28;20232;-52
2022/03/09 10:13:14;;;;;;;10.60;8.23;;;7.60;99.90;;;;;;5010556;28;20208;-52
2022/03/09 10:15:43;;;;;;;11.23;8.60;;;7.60;99.90;;;;;;4993308;28;20289;-51
2022/03/09 10:18:15;;;;;;;12.97;8.90;;;7.70;99.90;;;;;;4991008;28;20246;-51
2022/03/09 10:20:44;;;;;;;12.00;8.60;;;7.70;99.90;;;;;;4991229;28;20218;-52
2022/03/09 10:23:12;;;;;;;11.23;8.70;;;7.80;99.90;;;;;;4991177;28;20204;-52
2022/03/09 10:25:40;;;;;;;11.97;9.10;;;7.80;99.90;;;;;;4996866;28;20254;-53
2022/03/09 10:28:12;;;;;;;13.17;8.60;;;7.90;99.90;;;;;;5014475;28;20682;-52
2022/03/09 10:30:41;;;;;;;11.60;8.40;;;8.00;99.90;;;;;;5015228;28;20203;-52
2022/03/09 10:33:10;;;;;;;12.37;9.27;;;8.00;99.90;;;;;;5014478;28;20210;-52
2022/03/09 10:35:46;;;;;;;11.17;8.63;;;8.00;99.30;;;;;;5014908;28;20365;-52
2022/03/09 10:38:29;;;;;;;12.70;8.67;;;8.00;99.90;;;;;;5003090;28;20253;-52
2022/03/09 10:41:00;;;;;;;13.07;9.77;;;8.00;99.40;;;;;;5012536;28;20206;-52
2022/03/09 10:43:31;;;;;;;14.03;9.33;;;8.10;99.40;;;;;;5014589;28;20214;-52
2022/03/09 10:46:09;;;;;;;11.87;8.83;;;8.10;99.90;;;;;;5014409;28;20281;-52
2022/03/09 10:48:57;;;;;;;11.17;8.13;;;8.30;99.90;;;;;;5014942;28;20573;-51
2022/03/09 10:51:29;;;;;;;11.43;8.53;;;8.30;99.90;;;;;;5014922;28;20196;-52
2022/03/09 10:53:59;;;;;;;11.50;8.83;;;8.40;99.40;;;;;;5014094;28;20574;-52
2022/03/09 10:56:27;;;;;;;13.63;9.17;;;8.40;96.30;;;;;;5014497;28;20242;-52
2022/03/09 10:58:56;;;;;;;12.20;9.00;;;8.40;98.70;;;;;;5014420;28;20237;-51
2022/03/09 11:01:26;;;;;;;11.67;9.03;;;8.50;99.70;;;;;;5014990;28;20211;-52
2022/03/09 11:03:55;;;;;;;10.40;8.40;;;8.50;99.10;;;;;;5013140;28;20294;-52
2022/03/09 11:06:24;;;;;;;12.07;8.93;;;8.50;99.10;;;;;;5014138;28;20210;-52
2022/03/09 11:08:54;;;;;;;10.60;8.90;;;8.60;99.70;;;;;;5014428;28;20207;-52
2022/03/09 11:11:23;;;;;;;11.27;8.80;;;8.60;99.50;;;;;;4998444;28;20211;-52
2022/03/09 11:13:52;;;;;;;11.23;8.73;;;8.70;99.10;;;;;;5011716;28;20221;-52
2022/03/09 11:16:20;;;;;;;12.70;8.80;;;8.70;99.20;;;;;;5014720;28;20593;-52
2022/03/09 11:18:50;;;;;;;10.10;8.60;;;8.70;98.00;;;;;;5013781;28;20226;-52
2022/03/09 11:21:18;;;;;;;12.27;8.97;;;8.70;97.30;;;;;;5014178;28;20742;-52
2022/03/09 11:23:46;;;;;;;12.07;8.63;;;8.70;98.10;;;;;;5012783;28;20269;-52
2022/03/09 11:26:19;;;;;;;10.90;9.20;;;8.70;97.70;;;;;;5014265;28;20223;-52
2022/03/09 11:28:47;;;;;;;13.37;8.93;;;8.80;98.90;;;;;;5014404;28;20277;-52
2022/03/09 11:31:17;;;;;;;11.40;9.23;;;8.80;97.90;;;;;;5013935;28;20233;-52
2022/03/09 11:33:47;;;;;;;12.40;9.20;;;8.90;97.60;;;;;;5013682;28;20253;-52
2022/03/09 11:36:35;;;;;;;12.20;9.77;;;8.90;97.60;;;;;;5014034;28;20249;-52
2022/03/09 11:39:24;;;;;;;12.30;9.50;;;9.00;96.80;;;;;;5013769;28;20269;-52
2022/03/09 11:42:37;;;;;;;14.83;9.77;;;9.00;97.80;;;;;;5010257;28;20883;-52
2022/03/09 11:45:31;;;;;;;12.10;9.37;;;9.10;97.30;;;;;;4996157;28;20231;-52
2022/03/09 11:48:05;;;;;;;13.03;9.00;;;9.20;98.00;;;;;;5011931;28;20207;-51
2022/03/09 11:50:34;;;;;;;12.07;9.43;;;9.20;97.60;;;;;;5013940;28;20211;-51
2022/03/09 11:53:05;;;;;;;12.57;9.10;;;9.20;98.10;;;;;;5013222;28;20811;-52
2022/03/09 11:55:34;;;;;;;13.60;9.03;;;9.30;98.50;;;;;;5013129;28;20232;-52
2022/03/09 11:58:14;;;;;;;11.97;8.93;;;9.30;97.60;;;;;;5012442;28;20207;-52
2022/03/09 12:01:01;;;;;;;13.53;9.27;;;9.40;97.40;;;;;;5013727;28;20215;-52
2022/03/09 12:03:37;;;;;;;12.90;8.90;;;9.30;96.90;;;;;;5013125;28;20202;-52
2022/03/09 12:06:06;;;;;;;12.40;9.40;;;9.30;97.00;;;;;;5013230;28;20226;-52
2022/03/09 12:08:50;;;;;;;12.73;10.23;;;9.40;96.20;;;;;;5013285;28;20699;-51
2022/03/09 12:11:19;;;;;;;13.60;9.97;;;9.40;96.40;;;;;;5011335;28;20742;-52
2022/03/09 12:13:49;;;;;;;12.73;10.03;;;9.50;96.70;;;;;;5013081;28;20214;-52
2022/03/09 12:16:26;;;;;;;11.37;9.37;;;9.50;97.50;;;;;;5012908;28;20705;-52
2022/03/09 12:19:13;;;;;;;11.60;9.63;;;9.50;96.60;;;;;;5013297;28;20726;-51
2022/03/09 12:22:09;;;;;;;14.20;10.00;;;9.60;97.00;;;;;;5013009;28;20675;-52
2022/03/09 12:24:39;;;;;;;12.13;9.80;;;9.60;96.50;;;;;;5000609;28;20233;-52
2022/03/09 12:27:25;;;;;;;10.83;9.10;;;9.60;97.10;;;;;;4993454;28;20214;-52
2022/03/09 12:29:55;;;;;;;11.27;9.80;;;9.60;96.30;;;;;;4993217;28;20740;-52
2022/03/09 12:32:23;;;;;;;11.20;9.13;;;9.60;95.80;;;;;;4992758;28;20208;-52
2022/03/09 12:34:53;;;;;;;14.80;10.17;;;9.60;96.50;;;;;;4993334;28;20228;-52
2022/03/09 12:37:26;;;;;;;12.30;9.57;;;9.70;96.50;;;;;;4993245;28;20859;-51
2022/03/09 12:40:01;;;;;;;12.23;9.70;;;9.70;97.20;;;;;;4993514;28;20207;-52
2022/03/09 12:42:31;;;;;;;14.93;10.27;;;9.80;96.00;;;;;;4992076;28;20199;-52
2022/03/09 12:45:03;;;;;;;13.03;9.93;;;9.70;94.90;;;;;;4993376;28;20235;-52
2022/03/09 12:47:35;;;;;;;12.10;9.77;;;9.80;96.00;;;;;;4993603;28;20192;-52
2022/03/09 12:50:04;;;;;;;11.90;9.47;;;9.90;96.90;;;;;;4992321;28;20214;-52
2022/03/09 12:52:44;;;;;;;12.00;9.73;;;9.90;96.00;;;;;;4992451;28;20724;-52
2022/03/09 12:55:19;;;;;;;13.27;10.10;;;9.90;95.40;;;;;;4992559;28;20782;-52
2022/03/09 12:57:55;;;;;;;11.87;9.23;;;9.90;95.10;;;;;;4991639;28;20669;-51
2022/03/09 13:00:27;;;;;;;14.43;9.97;;;9.90;94.90;;;;;;4999675;28;20207;-52